sensor_id;sensor_type;location;lat;lon;timestamp;P1;durP1;ratioP1;P2;durP2;ratioP2
9420;SDS011;4749;51.398;5.466;2023-01-08T00:02:05;6.73;;;2.10;;
9420;SDS011;4749;51.398;5.466;2023-01-08T00:04:32;2.77;;;2.00;;
9420;SDS011;4749;51.398;5.466;2023-01-08T00:07:00;3.90;;;2.00;;
9420;SDS011;4749;51.398;5.466;2023-01-08T00:09:27;3.87;;;2.07;;
9420;SDS011;4749;51.398;5.466;2023-01-08T00:11:54;4.10;;;2.27;;
9420;SDS011;4749;51.398;5.466;2023-01-08T00:14:21;3.50;;;2.10;;
9420;SDS011;4749;51.398;5.466;2023-01-08T00:16:48;2.80;;;1.90;;
9420;SDS011;4749;51.398;5.466;2023-01-08T00:19:16;3.20;;;1.97;;
9420;SDS011;4749;51.398;5.466;2023-01-08T00:21:44;2.67;;;2.00;;
9420;SDS011;4749;51.398;5.466;2023-01-08T00:24:11;2.40;;;1.80;;
9420;SDS011;4749;51.398;5.466;2023-01-08T00:26:38;4.87;;;2.30;;
9420;SDS011;4749;51.398;5.466;2023-01-08T00:29:05;4.10;;;2.43;;
9420;SDS011;4749;51.398;5.466;2023-01-08T00:31:32;2.87;;;2.07;;
9420;SDS011;4749;51.398;5.466;2023-01-08T00:34:00;5.43;;;2.10;;
9420;SDS011;4749;51.398;5.466;2023-01-08T00:36:27;4.47;;;1.90;;
9420;SDS011;4749;51.398;5.466;2023-01-08T00:38:54;3.57;;;2.20;;
9420;SDS011;4749;51.398;5.466;2023-01-08T00:41:21;3.37;;;2.20;;
9420;SDS011;4749;51.398;5.466;2023-01-08T00:43:48;3.33;;;2.50;;
9420;SDS011;4749;51.398;5.466;2023-01-08T00:46:15;4.13;;;2.03;;
9420;SDS011;4749;51.398;5.466;2023-01-08T00:48:42;3.63;;;2.20;;
9420;SDS011;4749;51.398;5.466;2023-01-08T00:51:09;3.17;;;2.00;;
9420;SDS011;4749;51.398;5.466;2023-01-08T00:53:36;5.23;;;2.10;;
9420;SDS011;4749;51.398;5.466;2023-01-08T00:56:07;3.43;;;1.83;;
9420;SDS011;4749;51.398;5.466;2023-01-08T00:58:36;3.33;;;2.20;;
9420;SDS011;4749;51.398;5.466;2023-01-08T01:01:10;4.63;;;2.10;;
9420;SDS011;4749;51.398;5.466;2023-01-08T01:03:40;3.20;;;2.07;;
9420;SDS011;4749;51.398;5.466;2023-01-08T01:06:07;5.67;;;2.10;;
9420;SDS011;4749;51.398;5.466;2023-01-08T01:08:37;2.77;;;1.90;;
9420;SDS011;4749;51.398;5.466;2023-01-08T01:11:06;4.77;;;1.90;;
9420;SDS011;4749;51.398;5.466;2023-01-08T01:13:34;3.90;;;1.90;;
9420;SDS011;4749;51.398;5.466;2023-01-08T01:16:01;3.33;;;2.17;;
9420;SDS011;4749;51.398;5.466;2023-01-08T01:18:29;3.27;;;2.30;;
9420;SDS011;4749;51.398;5.466;2023-01-08T01:20:57;4.27;;;2.00;;
9420;SDS011;4749;51.398;5.466;2023-01-08T01:23:24;4.33;;;2.37;;
9420;SDS011;4749;51.398;5.466;2023-01-08T01:25:51;3.57;;;2.03;;
9420;SDS011;4749;51.398;5.466;2023-01-08T01:28:19;5.97;;;2.30;;
9420;SDS011;4749;51.398;5.466;2023-01-08T01:30:51;5.00;;;3.10;;
9420;SDS011;4749;51.398;5.466;2023-01-08T01:33:23;3.60;;;1.80;;
9420;SDS011;4749;51.398;5.466;2023-01-08T01:35:57;4.30;;;2.10;;
9420;SDS011;4749;51.398;5.466;2023-01-08T01:38:27;5.20;;;2.20;;
9420;SDS011;4749;51.398;5.466;2023-01-08T01:40:54;7.20;;;2.43;;
9420;SDS011;4749;51.398;5.466;2023-01-08T01:43:34;3.97;;;2.30;;
9420;SDS011;4749;51.398;5.466;2023-01-08T01:46:04;4.13;;;2.27;;
9420;SDS011;4749;51.398;5.466;2023-01-08T01:48:59;3.10;;;2.13;;
9420;SDS011;4749;51.398;5.466;2023-01-08T01:51:40;6.63;;;1.70;;
9420;SDS011;4749;51.398;5.466;2023-01-08T01:54:13;2.57;;;1.40;;
9420;SDS011;4749;51.398;5.466;2023-01-08T01:56:43;4.07;;;1.20;;
9420;SDS011;4749;51.398;5.466;2023-01-08T01:59:11;1.63;;;1.03;;
9420;SDS011;4749;51.398;5.466;2023-01-08T02:01:39;4.70;;;1.00;;
9420;SDS011;4749;51.398;5.466;2023-01-08T02:04:11;4.03;;;1.10;;
9420;SDS011;4749;51.398;5.466;2023-01-08T02:09:22;3.53;;;1.33;;
9420;SDS011;4749;51.398;5.466;2023-01-08T02:20:51;3.07;;;1.00;;
9420;SDS011;4749;51.398;5.466;2023-01-08T02:23:34;2.90;;;1.33;;
9420;SDS011;4749;51.398;5.466;2023-01-08T02:26:18;4.67;;;1.17;;
9420;SDS011;4749;51.398;5.466;2023-01-08T02:31:37;1.73;;;1.00;;
9420;SDS011;4749;51.398;5.466;2023-01-08T02:34:06;4.23;;;1.10;;
9420;SDS011;4749;51.398;5.466;2023-01-08T02:45:30;1.80;;;0.73;;
9420;SDS011;4749;51.398;5.466;2023-01-08T02:50:43;3.87;;;0.87;;
9420;SDS011;4749;51.398;5.466;2023-01-08T02:53:19;3.17;;;1.10;;
9420;SDS011;4749;51.398;5.466;2023-01-08T02:56:00;2.47;;;0.80;;
9420;SDS011;4749;51.398;5.466;2023-01-08T02:58:50;1.93;;;0.73;;
9420;SDS011;4749;51.398;5.466;2023-01-08T03:01:19;3.37;;;0.73;;
9420;SDS011;4749;51.398;5.466;2023-01-08T03:03:50;4.63;;;0.80;;
9420;SDS011;4749;51.398;5.466;2023-01-08T03:06:23;3.70;;;0.80;;
9420;SDS011;4749;51.398;5.466;2023-01-08T03:08:52;1.10;;;0.63;;
9420;SDS011;4749;51.398;5.466;2023-01-08T03:11:20;3.27;;;0.83;;
9420;SDS011;4749;51.398;5.466;2023-01-08T03:13:53;3.60;;;0.83;;
9420;SDS011;4749;51.398;5.466;2023-01-08T03:16:33;4.50;;;1.00;;
9420;SDS011;4749;51.398;5.466;2023-01-08T03:21:40;3.70;;;0.80;;
9420;SDS011;4749;51.398;5.466;2023-01-08T03:24:11;2.57;;;0.80;;
9420;SDS011;4749;51.398;5.466;2023-01-08T03:26:42;4.43;;;1.00;;
9420;SDS011;4749;51.398;5.466;2023-01-08T03:29:13;3.40;;;0.70;;
9420;SDS011;4749;51.398;5.466;2023-01-08T03:31:45;2.47;;;0.80;;
9420;SDS011;4749;51.398;5.466;2023-01-08T03:34:14;2.73;;;0.90;;
9420;SDS011;4749;51.398;5.466;2023-01-08T03:36:45;3.90;;;0.97;;
9420;SDS011;4749;51.398;5.466;2023-01-08T03:40:03;2.77;;;0.90;;
9420;SDS011;4749;51.398;5.466;2023-01-08T03:42:10;2.13;;;0.80;;
9420;SDS011;4749;51.398;5.466;2023-01-08T03:44:40;2.37;;;0.67;;
9420;SDS011;4749;51.398;5.466;2023-01-08T03:47:08;2.77;;;0.80;;
9420;SDS011;4749;51.398;5.466;2023-01-08T03:49:36;3.23;;;0.80;;
9420;SDS011;4749;51.398;5.466;2023-01-08T03:52:06;3.13;;;0.90;;
9420;SDS011;4749;51.398;5.466;2023-01-08T03:54:33;4.27;;;1.00;;
9420;SDS011;4749;51.398;5.466;2023-01-08T03:57:02;1.73;;;0.70;;
9420;SDS011;4749;51.398;5.466;2023-01-08T03:59:29;4.03;;;1.17;;
9420;SDS011;4749;51.398;5.466;2023-01-08T04:01:56;3.23;;;1.10;;
9420;SDS011;4749;51.398;5.466;2023-01-08T04:04:23;1.67;;;0.90;;
9420;SDS011;4749;51.398;5.466;2023-01-08T04:06:51;3.17;;;1.00;;
9420;SDS011;4749;51.398;5.466;2023-01-08T04:09:18;3.03;;;1.00;;
9420;SDS011;4749;51.398;5.466;2023-01-08T04:11:46;5.90;;;1.27;;
9420;SDS011;4749;51.398;5.466;2023-01-08T04:14:13;4.47;;;1.53;;
9420;SDS011;4749;51.398;5.466;2023-01-08T04:16:40;4.17;;;1.00;;
9420;SDS011;4749;51.398;5.466;2023-01-08T04:19:07;2.97;;;0.90;;
9420;SDS011;4749;51.398;5.466;2023-01-08T04:21:36;3.77;;;1.10;;
9420;SDS011;4749;51.398;5.466;2023-01-08T04:24:04;1.93;;;1.07;;
9420;SDS011;4749;51.398;5.466;2023-01-08T04:26:32;3.03;;;1.20;;
9420;SDS011;4749;51.398;5.466;2023-01-08T04:29:01;4.50;;;1.30;;
9420;SDS011;4749;51.398;5.466;2023-01-08T04:31:29;3.90;;;1.33;;
9420;SDS011;4749;51.398;5.466;2023-01-08T04:33:57;4.23;;;1.70;;
9420;SDS011;4749;51.398;5.466;2023-01-08T04:36:24;1.87;;;1.10;;
9420;SDS011;4749;51.398;5.466;2023-01-08T04:38:51;3.70;;;1.30;;
9420;SDS011;4749;51.398;5.466;2023-01-08T04:41:18;4.40;;;1.20;;
9420;SDS011;4749;51.398;5.466;2023-01-08T04:43:45;2.33;;;1.20;;
9420;SDS011;4749;51.398;5.466;2023-01-08T04:46:12;2.47;;;1.00;;
9420;SDS011;4749;51.398;5.466;2023-01-08T04:48:39;4.87;;;1.20;;
9420;SDS011;4749;51.398;5.466;2023-01-08T04:51:06;4.17;;;1.20;;
9420;SDS011;4749;51.398;5.466;2023-01-08T04:53:35;1.53;;;0.90;;
9420;SDS011;4749;51.398;5.466;2023-01-08T04:56:04;3.27;;;1.20;;
9420;SDS011;4749;51.398;5.466;2023-01-08T04:58:33;1.90;;;1.00;;
9420;SDS011;4749;51.398;5.466;2023-01-08T05:01:09;2.47;;;1.30;;
9420;SDS011;4749;51.398;5.466;2023-01-08T05:03:39;3.97;;;1.20;;
9420;SDS011;4749;51.398;5.466;2023-01-08T05:06:06;6.13;;;1.33;;
9420;SDS011;4749;51.398;5.466;2023-01-08T05:08:34;2.40;;;1.10;;
9420;SDS011;4749;51.398;5.466;2023-01-08T05:11:01;3.90;;;1.50;;
9420;SDS011;4749;51.398;5.466;2023-01-08T05:13:29;5.80;;;1.43;;
9420;SDS011;4749;51.398;5.466;2023-01-08T05:15:59;3.40;;;1.10;;
9420;SDS011;4749;51.398;5.466;2023-01-08T05:18:27;4.80;;;1.53;;
9420;SDS011;4749;51.398;5.466;2023-01-08T05:20:59;2.70;;;1.50;;
9420;SDS011;4749;51.398;5.466;2023-01-08T05:23:28;4.07;;;1.60;;
9420;SDS011;4749;51.398;5.466;2023-01-08T05:25:57;4.10;;;1.47;;
9420;SDS011;4749;51.398;5.466;2023-01-08T05:28:25;4.40;;;2.60;;
9420;SDS011;4749;51.398;5.466;2023-01-08T05:30:53;5.93;;;1.40;;
9420;SDS011;4749;51.398;5.466;2023-01-08T05:33:21;6.00;;;1.40;;
9420;SDS011;4749;51.398;5.466;2023-01-08T05:35:48;7.07;;;1.50;;
9420;SDS011;4749;51.398;5.466;2023-01-08T05:38:15;3.20;;;1.10;;
9420;SDS011;4749;51.398;5.466;2023-01-08T05:40:42;3.73;;;1.10;;
9420;SDS011;4749;51.398;5.466;2023-01-08T05:43:10;7.77;;;1.07;;
9420;SDS011;4749;51.398;5.466;2023-01-08T05:45:37;3.23;;;1.10;;
9420;SDS011;4749;51.398;5.466;2023-01-08T05:48:05;3.10;;;1.07;;
9420;SDS011;4749;51.398;5.466;2023-01-08T05:50:32;3.03;;;0.93;;
9420;SDS011;4749;51.398;5.466;2023-01-08T05:53:00;4.30;;;1.00;;
9420;SDS011;4749;51.398;5.466;2023-01-08T05:55:31;4.47;;;1.13;;
9420;SDS011;4749;51.398;5.466;2023-01-08T05:58:00;3.87;;;1.10;;
9420;SDS011;4749;51.398;5.466;2023-01-08T06:00:29;3.03;;;0.90;;
9420;SDS011;4749;51.398;5.466;2023-01-08T06:02:57;2.63;;;0.80;;
9420;SDS011;4749;51.398;5.466;2023-01-08T06:05:24;1.97;;;0.80;;
9420;SDS011;4749;51.398;5.466;2023-01-08T06:07:52;3.20;;;0.97;;
9420;SDS011;4749;51.398;5.466;2023-01-08T06:10:19;6.10;;;1.20;;
9420;SDS011;4749;51.398;5.466;2023-01-08T06:12:46;2.03;;;1.00;;
9420;SDS011;4749;51.398;5.466;2023-01-08T06:15:13;4.17;;;1.00;;
9420;SDS011;4749;51.398;5.466;2023-01-08T06:17:40;3.73;;;0.87;;
9420;SDS011;4749;51.398;5.466;2023-01-08T06:20:08;2.43;;;0.77;;
9420;SDS011;4749;51.398;5.466;2023-01-08T06:22:35;2.57;;;0.70;;
9420;SDS011;4749;51.398;5.466;2023-01-08T06:25:04;5.67;;;0.90;;
9420;SDS011;4749;51.398;5.466;2023-01-08T06:27:32;4.07;;;1.43;;
9420;SDS011;4749;51.398;5.466;2023-01-08T06:29:59;1.93;;;0.90;;
9420;SDS011;4749;51.398;5.466;2023-01-08T06:32:26;6.37;;;1.13;;
9420;SDS011;4749;51.398;5.466;2023-01-08T06:34:53;3.60;;;0.87;;
9420;SDS011;4749;51.398;5.466;2023-01-08T06:37:20;4.90;;;0.90;;
9420;SDS011;4749;51.398;5.466;2023-01-08T06:39:47;6.20;;;0.90;;
9420;SDS011;4749;51.398;5.466;2023-01-08T06:42:14;5.87;;;1.20;;
9420;SDS011;4749;51.398;5.466;2023-01-08T06:44:41;6.27;;;0.90;;
9420;SDS011;4749;51.398;5.466;2023-01-08T06:47:08;4.03;;;1.00;;
9420;SDS011;4749;51.398;5.466;2023-01-08T06:49:35;5.00;;;0.97;;
9420;SDS011;4749;51.398;5.466;2023-01-08T06:52:02;3.97;;;0.83;;
9420;SDS011;4749;51.398;5.466;2023-01-08T06:54:29;5.07;;;1.00;;
9420;SDS011;4749;51.398;5.466;2023-01-08T06:56:56;5.23;;;1.13;;
9420;SDS011;4749;51.398;5.466;2023-01-08T06:59:23;2.80;;;1.00;;
9420;SDS011;4749;51.398;5.466;2023-01-08T07:01:51;5.90;;;1.30;;
9420;SDS011;4749;51.398;5.466;2023-01-08T07:04:18;6.13;;;1.20;;
9420;SDS011;4749;51.398;5.466;2023-01-08T07:06:45;5.07;;;1.00;;
9420;SDS011;4749;51.398;5.466;2023-01-08T07:09:14;6.23;;;1.17;;
9420;SDS011;4749;51.398;5.466;2023-01-08T07:11:41;4.23;;;1.17;;
9420;SDS011;4749;51.398;5.466;2023-01-08T07:14:08;3.27;;;1.00;;
9420;SDS011;4749;51.398;5.466;2023-01-08T07:16:35;3.67;;;1.20;;
9420;SDS011;4749;51.398;5.466;2023-01-08T07:19:03;3.67;;;0.80;;
9420;SDS011;4749;51.398;5.466;2023-01-08T07:21:30;6.13;;;0.90;;
9420;SDS011;4749;51.398;5.466;2023-01-08T07:23:57;4.80;;;1.00;;
9420;SDS011;4749;51.398;5.466;2023-01-08T07:26:24;5.23;;;1.07;;
9420;SDS011;4749;51.398;5.466;2023-01-08T07:28:52;4.73;;;0.90;;
9420;SDS011;4749;51.398;5.466;2023-01-08T07:31:20;6.37;;;1.03;;
9420;SDS011;4749;51.398;5.466;2023-01-08T07:33:47;3.20;;;0.77;;
9420;SDS011;4749;51.398;5.466;2023-01-08T07:36:14;4.47;;;1.00;;
9420;SDS011;4749;51.398;5.466;2023-01-08T07:38:43;6.40;;;1.30;;
9420;SDS011;4749;51.398;5.466;2023-01-08T07:41:10;2.60;;;1.00;;
9420;SDS011;4749;51.398;5.466;2023-01-08T07:43:38;7.53;;;1.00;;
9420;SDS011;4749;51.398;5.466;2023-01-08T07:46:05;2.93;;;0.83;;
9420;SDS011;4749;51.398;5.466;2023-01-08T07:48:33;3.93;;;1.00;;
9420;SDS011;4749;51.398;5.466;2023-01-08T07:51:00;4.93;;;1.03;;
9420;SDS011;4749;51.398;5.466;2023-01-08T07:53:32;6.40;;;1.10;;
9420;SDS011;4749;51.398;5.466;2023-01-08T07:56:01;4.53;;;1.20;;
9420;SDS011;4749;51.398;5.466;2023-01-08T07:58:31;6.70;;;1.13;;
9420;SDS011;4749;51.398;5.466;2023-01-08T08:00:59;4.90;;;1.27;;
9420;SDS011;4749;51.398;5.466;2023-01-08T08:03:27;5.63;;;1.23;;
9420;SDS011;4749;51.398;5.466;2023-01-08T08:05:54;5.70;;;1.13;;
9420;SDS011;4749;51.398;5.466;2023-01-08T08:08:21;4.27;;;1.20;;
9420;SDS011;4749;51.398;5.466;2023-01-08T08:10:48;5.27;;;1.27;;
9420;SDS011;4749;51.398;5.466;2023-01-08T08:13:15;5.53;;;1.10;;
9420;SDS011;4749;51.398;5.466;2023-01-08T08:15:42;4.00;;;1.00;;
9420;SDS011;4749;51.398;5.466;2023-01-08T08:18:09;7.93;;;1.93;;
9420;SDS011;4749;51.398;5.466;2023-01-08T08:20:36;7.97;;;1.40;;
9420;SDS011;4749;51.398;5.466;2023-01-08T08:23:11;6.30;;;1.30;;
9420;SDS011;4749;51.398;5.466;2023-01-08T08:25:40;6.63;;;1.47;;
9420;SDS011;4749;51.398;5.466;2023-01-08T08:28:09;4.57;;;1.30;;
9420;SDS011;4749;51.398;5.466;2023-01-08T08:30:38;6.00;;;1.20;;
9420;SDS011;4749;51.398;5.466;2023-01-08T08:33:07;4.93;;;1.10;;
9420;SDS011;4749;51.398;5.466;2023-01-08T08:35:35;7.83;;;1.53;;
9420;SDS011;4749;51.398;5.466;2023-01-08T08:38:03;7.53;;;1.23;;
9420;SDS011;4749;51.398;5.466;2023-01-08T08:40:30;6.30;;;1.60;;
9420;SDS011;4749;51.398;5.466;2023-01-08T08:42:58;4.83;;;1.23;;
9420;SDS011;4749;51.398;5.466;2023-01-08T08:45:29;5.50;;;1.20;;
9420;SDS011;4749;51.398;5.466;2023-01-08T08:47:56;5.83;;;1.10;;
9420;SDS011;4749;51.398;5.466;2023-01-08T08:50:24;4.73;;;1.00;;
9420;SDS011;4749;51.398;5.466;2023-01-08T08:52:51;6.70;;;1.40;;
9420;SDS011;4749;51.398;5.466;2023-01-08T08:55:23;4.97;;;1.50;;
9420;SDS011;4749;51.398;5.466;2023-01-08T08:57:50;3.77;;;1.20;;
9420;SDS011;4749;51.398;5.466;2023-01-08T09:00:18;6.73;;;1.40;;
9420;SDS011;4749;51.398;5.466;2023-01-08T09:02:45;5.33;;;1.60;;
9420;SDS011;4749;51.398;5.466;2023-01-08T09:05:16;5.73;;;1.23;;
9420;SDS011;4749;51.398;5.466;2023-01-08T09:07:43;6.70;;;1.50;;
9420;SDS011;4749;51.398;5.466;2023-01-08T09:10:10;4.00;;;1.70;;
9420;SDS011;4749;51.398;5.466;2023-01-08T09:12:37;8.80;;;1.47;;
9420;SDS011;4749;51.398;5.466;2023-01-08T09:15:04;7.33;;;1.50;;
9420;SDS011;4749;51.398;5.466;2023-01-08T09:17:32;8.87;;;1.73;;
9420;SDS011;4749;51.398;5.466;2023-01-08T09:20:03;5.10;;;1.60;;
9420;SDS011;4749;51.398;5.466;2023-01-08T09:22:31;9.27;;;1.70;;
9420;SDS011;4749;51.398;5.466;2023-01-08T09:24:58;8.37;;;1.80;;
9420;SDS011;4749;51.398;5.466;2023-01-08T09:27:26;5.60;;;1.40;;
9420;SDS011;4749;51.398;5.466;2023-01-08T09:29:53;6.37;;;1.43;;
9420;SDS011;4749;51.398;5.466;2023-01-08T09:32:20;7.40;;;2.27;;
9420;SDS011;4749;51.398;5.466;2023-01-08T09:34:47;6.33;;;1.70;;
9420;SDS011;4749;51.398;5.466;2023-01-08T09:37:14;4.73;;;1.80;;
9420;SDS011;4749;51.398;5.466;2023-01-08T09:39:41;8.80;;;2.00;;
9420;SDS011;4749;51.398;5.466;2023-01-08T09:42:13;3.90;;;1.40;;
9420;SDS011;4749;51.398;5.466;2023-01-08T09:44:42;7.67;;;1.20;;
9420;SDS011;4749;51.398;5.466;2023-01-08T09:47:28;9.53;;;1.97;;
9420;SDS011;4749;51.398;5.466;2023-01-08T09:50:05;6.17;;;1.60;;
9420;SDS011;4749;51.398;5.466;2023-01-08T09:52:39;10.17;;;1.73;;
9420;SDS011;4749;51.398;5.466;2023-01-08T09:55:11;4.70;;;1.70;;
9420;SDS011;4749;51.398;5.466;2023-01-08T09:57:40;6.73;;;1.57;;
9420;SDS011;4749;51.398;5.466;2023-01-08T10:00:11;8.63;;;1.57;;
9420;SDS011;4749;51.398;5.466;2023-01-08T10:02:47;4.13;;;1.10;;
9420;SDS011;4749;51.398;5.466;2023-01-08T10:05:15;7.30;;;1.37;;
9420;SDS011;4749;51.398;5.466;2023-01-08T10:07:44;4.93;;;1.20;;
9420;SDS011;4749;51.398;5.466;2023-01-08T10:10:22;5.40;;;1.20;;
9420;SDS011;4749;51.398;5.466;2023-01-08T10:12:56;7.27;;;1.00;;
9420;SDS011;4749;51.398;5.466;2023-01-08T10:15:26;5.97;;;0.90;;
9420;SDS011;4749;51.398;5.466;2023-01-08T10:18:05;5.03;;;1.30;;
9420;SDS011;4749;51.398;5.466;2023-01-08T10:20:38;3.10;;;0.90;;
9420;SDS011;4749;51.398;5.466;2023-01-08T10:23:10;5.30;;;0.93;;
9420;SDS011;4749;51.398;5.466;2023-01-08T10:28:28;2.10;;;0.80;;
9420;SDS011;4749;51.398;5.466;2023-01-08T10:31:07;5.40;;;1.10;;
9420;SDS011;4749;51.398;5.466;2023-01-08T10:33:42;2.40;;;0.83;;
9420;SDS011;4749;51.398;5.466;2023-01-08T10:36:16;2.43;;;0.60;;
9420;SDS011;4749;51.398;5.466;2023-01-08T10:38:54;1.43;;;0.70;;
9420;SDS011;4749;51.398;5.466;2023-01-08T10:41:27;1.40;;;0.60;;
9420;SDS011;4749;51.398;5.466;2023-01-08T10:43:56;2.40;;;0.70;;
9420;SDS011;4749;51.398;5.466;2023-01-08T10:49:35;1.67;;;0.60;;
9420;SDS011;4749;51.398;5.466;2023-01-08T10:55:21;2.73;;;0.73;;
9420;SDS011;4749;51.398;5.466;2023-01-08T10:57:58;0.77;;;0.50;;
9420;SDS011;4749;51.398;5.466;2023-01-08T11:00:39;1.33;;;0.60;;
9420;SDS011;4749;51.398;5.466;2023-01-08T11:03:14;1.47;;;0.70;;
9420;SDS011;4749;51.398;5.466;2023-01-08T11:05:48;1.70;;;0.50;;
9420;SDS011;4749;51.398;5.466;2023-01-08T11:08:17;1.07;;;0.77;;
9420;SDS011;4749;51.398;5.466;2023-01-08T11:10:55;0.70;;;0.50;;
9420;SDS011;4749;51.398;5.466;2023-01-08T11:13:27;2.37;;;0.50;;
9420;SDS011;4749;51.398;5.466;2023-01-08T11:16:03;1.33;;;0.50;;
9420;SDS011;4749;51.398;5.466;2023-01-08T11:18:48;1.57;;;0.60;;
9420;SDS011;4749;51.398;5.466;2023-01-08T11:21:18;1.17;;;0.50;;
9420;SDS011;4749;51.398;5.466;2023-01-08T11:24:10;0.57;;;0.50;;
9420;SDS011;4749;51.398;5.466;2023-01-08T11:26:45;1.67;;;0.77;;
9420;SDS011;4749;51.398;5.466;2023-01-08T11:29:40;1.47;;;0.50;;
9420;SDS011;4749;51.398;5.466;2023-01-08T11:32:39;1.37;;;0.50;;
9420;SDS011;4749;51.398;5.466;2023-01-08T11:35:30;2.43;;;0.80;;
9420;SDS011;4749;51.398;5.466;2023-01-08T11:38:05;1.67;;;0.60;;
9420;SDS011;4749;51.398;5.466;2023-01-08T11:40:49;0.60;;;0.50;;
9420;SDS011;4749;51.398;5.466;2023-01-08T11:43:37;0.90;;;0.60;;
9420;SDS011;4749;51.398;5.466;2023-01-08T11:49:58;2.47;;;0.80;;
9420;SDS011;4749;51.398;5.466;2023-01-08T11:52:54;2.20;;;0.53;;
9420;SDS011;4749;51.398;5.466;2023-01-08T12:07:49;2.57;;;1.03;;
9420;SDS011;4749;51.398;5.466;2023-01-08T12:17:11;5.20;;;0.97;;
9420;SDS011;4749;51.398;5.466;2023-01-08T12:29:25;7.83;;;1.30;;
9420;SDS011;4749;51.398;5.466;2023-01-08T12:34:54;3.70;;;0.93;;
9420;SDS011;4749;51.398;5.466;2023-01-08T12:40:31;4.40;;;1.33;;
9420;SDS011;4749;51.398;5.466;2023-01-08T12:43:16;3.17;;;0.87;;
9420;SDS011;4749;51.398;5.466;2023-01-08T12:45:55;1.37;;;0.87;;
9420;SDS011;4749;51.398;5.466;2023-01-08T12:48:29;3.10;;;1.00;;
9420;SDS011;4749;51.398;5.466;2023-01-08T12:51:23;5.95;;;1.35;;
9420;SDS011;4749;51.398;5.466;2023-01-08T12:57:11;2.53;;;0.93;;
9420;SDS011;4749;51.398;5.466;2023-01-08T13:00:17;3.60;;;0.80;;
9420;SDS011;4749;51.398;5.466;2023-01-08T13:03:12;2.83;;;1.10;;
9420;SDS011;4749;51.398;5.466;2023-01-08T13:05:51;1.77;;;0.87;;
9420;SDS011;4749;51.398;5.466;2023-01-08T13:08:33;2.50;;;0.90;;
9420;SDS011;4749;51.398;5.466;2023-01-08T13:11:05;5.47;;;1.10;;
9420;SDS011;4749;51.398;5.466;2023-01-08T13:13:34;3.60;;;1.13;;
9420;SDS011;4749;51.398;5.466;2023-01-08T13:18:39;3.00;;;1.10;;
9420;SDS011;4749;51.398;5.466;2023-01-08T13:21:15;5.77;;;1.53;;
9420;SDS011;4749;51.398;5.466;2023-01-08T13:23:43;5.97;;;1.17;;
9420;SDS011;4749;51.398;5.466;2023-01-08T13:26:10;5.00;;;1.10;;
9420;SDS011;4749;51.398;5.466;2023-01-08T13:33:49;2.60;;;1.10;;
9420;SDS011;4749;51.398;5.466;2023-01-08T13:42:00;7.00;;;1.23;;
9420;SDS011;4749;51.398;5.466;2023-01-08T13:44:49;5.10;;;1.20;;
9420;SDS011;4749;51.398;5.466;2023-01-08T13:47:26;3.70;;;1.00;;
9420;SDS011;4749;51.398;5.466;2023-01-08T13:50:13;5.93;;;1.10;;
9420;SDS011;4749;51.398;5.466;2023-01-08T13:52:55;5.07;;;1.20;;
9420;SDS011;4749;51.398;5.466;2023-01-08T13:55:29;4.80;;;1.07;;
9420;SDS011;4749;51.398;5.466;2023-01-08T13:58:08;4.75;;;1.10;;
9420;SDS011;4749;51.398;5.466;2023-01-08T14:08:54;4.00;;;1.03;;
9420;SDS011;4749;51.398;5.466;2023-01-08T14:11:27;1.60;;;0.90;;
9420;SDS011;4749;51.398;5.466;2023-01-08T14:14:11;5.10;;;1.40;;
9420;SDS011;4749;51.398;5.466;2023-01-08T14:16:40;4.37;;;0.87;;
9420;SDS011;4749;51.398;5.466;2023-01-08T14:19:07;4.33;;;1.00;;
9420;SDS011;4749;51.398;5.466;2023-01-08T14:21:55;3.97;;;1.00;;
9420;SDS011;4749;51.398;5.466;2023-01-08T14:24:24;4.10;;;1.10;;
9420;SDS011;4749;51.398;5.466;2023-01-08T14:26:52;3.30;;;0.80;;
9420;SDS011;4749;51.398;5.466;2023-01-08T14:29:25;4.40;;;1.20;;
9420;SDS011;4749;51.398;5.466;2023-01-08T14:31:56;7.43;;;4.03;;
9420;SDS011;4749;51.398;5.466;2023-01-08T14:34:27;4.93;;;2.00;;
9420;SDS011;4749;51.398;5.466;2023-01-08T14:36:57;4.23;;;1.50;;
9420;SDS011;4749;51.398;5.466;2023-01-08T14:42:07;5.10;;;1.20;;
9420;SDS011;4749;51.398;5.466;2023-01-08T14:45:17;5.63;;;1.30;;
9420;SDS011;4749;51.398;5.466;2023-01-08T14:47:52;4.30;;;1.20;;
9420;SDS011;4749;51.398;5.466;2023-01-08T14:50:35;4.40;;;1.07;;
9420;SDS011;4749;51.398;5.466;2023-01-08T14:53:08;2.43;;;0.90;;
9420;SDS011;4749;51.398;5.466;2023-01-08T14:55:41;3.63;;;1.10;;
9420;SDS011;4749;51.398;5.466;2023-01-08T14:58:13;2.37;;;1.30;;
9420;SDS011;4749;51.398;5.466;2023-01-08T15:00:53;4.23;;;0.90;;
9420;SDS011;4749;51.398;5.466;2023-01-08T15:03:30;3.50;;;1.00;;
9420;SDS011;4749;51.398;5.466;2023-01-08T15:06:06;4.77;;;1.57;;
9420;SDS011;4749;51.398;5.466;2023-01-08T15:08:37;5.80;;;2.30;;
9420;SDS011;4749;51.398;5.466;2023-01-08T15:11:18;7.13;;;2.40;;
9420;SDS011;4749;51.398;5.466;2023-01-08T15:13:50;3.23;;;1.23;;
9420;SDS011;4749;51.398;5.466;2023-01-08T15:19:04;3.50;;;1.77;;
9420;SDS011;4749;51.398;5.466;2023-01-08T15:21:45;5.50;;;1.77;;
9420;SDS011;4749;51.398;5.466;2023-01-08T15:27:24;2.27;;;1.00;;
9420;SDS011;4749;51.398;5.466;2023-01-08T15:29:53;3.37;;;1.30;;
9420;SDS011;4749;51.398;5.466;2023-01-08T15:32:30;4.53;;;1.20;;
9420;SDS011;4749;51.398;5.466;2023-01-08T15:35:00;2.87;;;1.10;;
9420;SDS011;4749;51.398;5.466;2023-01-08T15:37:27;4.37;;;1.37;;
9420;SDS011;4749;51.398;5.466;2023-01-08T15:39:55;3.23;;;1.30;;
9420;SDS011;4749;51.398;5.466;2023-01-08T15:45:20;5.90;;;1.27;;
9420;SDS011;4749;51.398;5.466;2023-01-08T15:47:57;4.97;;;1.40;;
9420;SDS011;4749;51.398;5.466;2023-01-08T15:50:37;5.57;;;1.37;;
9420;SDS011;4749;51.398;5.466;2023-01-08T15:55:38;4.90;;;1.40;;
9420;SDS011;4749;51.398;5.466;2023-01-08T15:58:09;5.63;;;1.07;;
9420;SDS011;4749;51.398;5.466;2023-01-08T16:00:38;3.23;;;1.00;;
9420;SDS011;4749;51.398;5.466;2023-01-08T16:03:07;2.53;;;1.13;;
9420;SDS011;4749;51.398;5.466;2023-01-08T16:05:36;4.20;;;1.40;;
9420;SDS011;4749;51.398;5.466;2023-01-08T16:08:03;3.93;;;1.30;;
9420;SDS011;4749;51.398;5.466;2023-01-08T16:10:31;3.30;;;1.20;;
9420;SDS011;4749;51.398;5.466;2023-01-08T16:12:59;4.47;;;1.07;;
9420;SDS011;4749;51.398;5.466;2023-01-08T16:15:26;3.30;;;1.10;;
9420;SDS011;4749;51.398;5.466;2023-01-08T16:17:56;3.57;;;0.90;;
9420;SDS011;4749;51.398;5.466;2023-01-08T16:20:24;3.37;;;1.20;;
9420;SDS011;4749;51.398;5.466;2023-01-08T16:22:51;3.23;;;1.00;;
9420;SDS011;4749;51.398;5.466;2023-01-08T16:25:20;6.00;;;1.33;;
9420;SDS011;4749;51.398;5.466;2023-01-08T16:27:47;3.63;;;1.50;;
9420;SDS011;4749;51.398;5.466;2023-01-08T16:30:14;2.83;;;1.10;;
9420;SDS011;4749;51.398;5.466;2023-01-08T16:32:42;2.60;;;1.00;;
9420;SDS011;4749;51.398;5.466;2023-01-08T16:35:17;3.97;;;1.47;;
9420;SDS011;4749;51.398;5.466;2023-01-08T16:37:46;2.23;;;1.10;;
9420;SDS011;4749;51.398;5.466;2023-01-08T16:40:16;4.00;;;1.20;;
9420;SDS011;4749;51.398;5.466;2023-01-08T16:42:44;4.70;;;1.47;;
9420;SDS011;4749;51.398;5.466;2023-01-08T16:45:11;3.67;;;1.00;;
9420;SDS011;4749;51.398;5.466;2023-01-08T16:47:38;3.23;;;1.17;;
9420;SDS011;4749;51.398;5.466;2023-01-08T16:50:06;2.93;;;1.30;;
9420;SDS011;4749;51.398;5.466;2023-01-08T16:52:35;3.07;;;1.20;;
9420;SDS011;4749;51.398;5.466;2023-01-08T16:55:04;7.47;;;1.77;;
9420;SDS011;4749;51.398;5.466;2023-01-08T16:57:32;4.17;;;1.90;;
9420;SDS011;4749;51.398;5.466;2023-01-08T16:59:59;4.63;;;1.90;;
9420;SDS011;4749;51.398;5.466;2023-01-08T17:02:27;7.67;;;1.90;;
9420;SDS011;4749;51.398;5.466;2023-01-08T17:04:54;3.73;;;1.40;;
9420;SDS011;4749;51.398;5.466;2023-01-08T17:07:21;4.27;;;1.30;;
9420;SDS011;4749;51.398;5.466;2023-01-08T17:09:48;3.00;;;1.53;;
9420;SDS011;4749;51.398;5.466;2023-01-08T17:12:15;4.50;;;1.30;;
9420;SDS011;4749;51.398;5.466;2023-01-08T17:14:48;5.43;;;1.50;;
9420;SDS011;4749;51.398;5.466;2023-01-08T17:17:18;2.63;;;1.40;;
9420;SDS011;4749;51.398;5.466;2023-01-08T17:19:45;3.97;;;1.67;;
9420;SDS011;4749;51.398;5.466;2023-01-08T17:22:13;4.40;;;1.40;;
9420;SDS011;4749;51.398;5.466;2023-01-08T17:24:40;3.87;;;1.30;;
9420;SDS011;4749;51.398;5.466;2023-01-08T17:27:07;3.87;;;1.40;;
9420;SDS011;4749;51.398;5.466;2023-01-08T17:29:36;5.27;;;1.40;;
9420;SDS011;4749;51.398;5.466;2023-01-08T17:32:05;3.33;;;1.20;;
9420;SDS011;4749;51.398;5.466;2023-01-08T17:34:32;2.73;;;1.30;;